createdAt,value
2022-10-21T00:00:10.451Z,0.00
2022-10-21T00:01:05.559Z,0.00
2022-10-21T00:02:00.537Z,0.00
2022-10-21T00:02:55.597Z,0.00
2022-10-21T00:03:50.669Z,0.00
2022-10-21T00:04:45.768Z,0.00
2022-10-21T00:05:40.849Z,0.00
2022-10-21T00:06:35.876Z,0.00
2022-10-21T00:07:30.987Z,0.00
2022-10-21T00:08:26.001Z,0.00
2022-10-21T00:09:23.084Z,0.00
2022-10-21T00:10:18.146Z,0.00
2022-10-21T00:11:13.205Z,0.00
2022-10-21T00:12:08.145Z,0.00
2022-10-21T00:13:03.138Z,0.00
2022-10-21T00:13:58.194Z,0.00
2022-10-21T00:14:56.342Z,0.00
2022-10-21T00:15:48.352Z,0.00
2022-10-21T00:16:43.615Z,0.00
2022-10-21T00:17:38.524Z,0.00
2022-10-21T00:18:33.605Z,0.00
2022-10-21T00:19:28.869Z,0.00
2022-10-21T00:20:24.783Z,0.00
2022-10-21T00:21:19.842Z,0.00
2022-10-21T00:22:15.074Z,0.00
2022-10-21T00:23:10.842Z,0.00
2022-10-21T00:24:06.090Z,0.00
2022-10-21T00:25:02.029Z,0.00
2022-10-21T00:25:57.093Z,0.00
2022-10-21T00:26:52.601Z,0.00
2022-10-21T00:27:48.105Z,0.00
2022-10-21T00:28:43.329Z,0.00
2022-10-21T00:29:38.533Z,0.00
2022-10-21T00:30:35.005Z,0.00
2022-10-21T00:31:30.225Z,0.00
2022-10-21T00:32:26.001Z,0.00
2022-10-21T00:33:21.222Z,0.00
2022-10-21T00:34:16.439Z,0.00
2022-10-21T00:35:12.232Z,0.00
2022-10-21T00:36:07.599Z,0.00
2022-10-21T00:37:03.489Z,0.00
2022-10-21T00:37:58.585Z,0.00
2022-10-21T00:38:53.853Z,0.00
2022-10-21T00:39:49.659Z,0.00
2022-10-21T00:40:44.873Z,0.00
2022-10-21T00:41:40.203Z,0.00
2022-10-21T00:42:38.559Z,0.00
2022-10-21T00:43:31.832Z,0.00
2022-10-21T00:44:27.640Z,0.00
2022-10-21T00:45:22.846Z,0.00
2022-10-21T00:46:18.349Z,0.00
2022-10-21T00:47:14.004Z,0.00
2022-10-21T00:48:09.231Z,0.00
2022-10-21T00:49:05.059Z,0.00
2022-10-21T00:50:00.268Z,0.00
2022-10-21T00:50:55.743Z,0.00
2022-10-21T00:51:51.417Z,0.00
2022-10-21T00:52:46.756Z,0.00
2022-10-21T00:53:41.991Z,0.00
2022-10-21T00:54:38.335Z,0.00
2022-10-21T00:55:33.582Z,0.00
2022-10-21T00:56:29.372Z,0.00
2022-10-21T00:57:24.571Z,0.00
2022-10-21T00:58:19.839Z,0.00
2022-10-21T00:59:15.622Z,0.00
2022-10-21T01:00:10.869Z,0.00
2022-10-21T01:01:06.659Z,0.00
2022-10-21T01:02:01.846Z,0.00
2022-10-21T01:02:57.233Z,0.00
2022-10-21T01:03:53.047Z,0.00
2022-10-21T01:04:48.359Z,0.00
2022-10-21T01:05:43.637Z,0.00
2022-10-21T01:06:38.853Z,0.00
2022-10-21T01:07:37.544Z,0.00
2022-10-21T01:08:31.241Z,0.00
2022-10-21T01:09:25.116Z,0.00
2022-10-21T01:10:21.830Z,0.00
2022-10-21T01:11:17.184Z,0.00
2022-10-21T01:12:12.985Z,0.00
2022-10-21T01:13:08.375Z,0.00
2022-10-21T01:14:03.583Z,0.00
2022-10-21T01:14:59.275Z,0.00
2022-10-21T01:15:54.467Z,0.00
2022-10-21T01:16:49.685Z,0.00
2022-10-21T01:17:46.087Z,0.00
2022-10-21T01:18:41.358Z,0.00
2022-10-21T01:19:37.132Z,0.00
2022-10-21T01:20:32.335Z,0.00
2022-10-21T01:21:27.562Z,0.00
2022-10-21T01:22:23.343Z,0.00
2022-10-21T01:23:18.557Z,0.00
2022-10-21T01:24:13.789Z,0.00
2022-10-21T01:25:08.998Z,0.00
2022-10-21T01:26:04.216Z,0.00
2022-10-21T01:26:59.453Z,0.00
2022-10-21T01:27:54.811Z,0.00
2022-10-21T01:28:51.157Z,0.00
2022-10-21T01:29:46.567Z,0.00
2022-10-21T01:30:41.775Z,0.00
2022-10-21T01:31:37.429Z,0.00
2022-10-21T01:32:32.638Z,0.00
2022-10-21T01:33:27.891Z,0.00
2022-10-21T01:34:23.229Z,0.00
2022-10-21T01:35:18.322Z,0.00
2022-10-21T01:36:13.556Z,0.00
2022-10-21T01:37:09.868Z,0.00
2022-10-21T01:38:05.067Z,0.00
2022-10-21T01:39:00.316Z,0.00
2022-10-21T01:39:59.454Z,0.00
2022-10-21T01:40:54.672Z,0.00
2022-10-21T01:41:49.916Z,0.00
2022-10-21T01:42:45.121Z,0.00
2022-10-21T01:43:40.225Z,0.00
2022-10-21T01:44:35.203Z,0.00
2022-10-21T01:45:30.296Z,0.00
2022-10-21T01:46:25.363Z,0.00
2022-10-21T01:47:20.463Z,0.00
2022-10-21T01:48:15.523Z,0.00
2022-10-21T01:49:10.764Z,0.00
2022-10-21T01:50:05.701Z,0.00
2022-10-21T01:51:00.795Z,0.00
2022-10-21T01:51:55.877Z,0.00
2022-10-21T01:52:50.953Z,0.00
2022-10-21T01:53:46.066Z,0.00
2022-10-21T01:54:41.152Z,0.00
2022-10-21T01:55:36.212Z,0.00
2022-10-21T01:56:31.296Z,0.00
2022-10-21T01:57:26.561Z,0.00
2022-10-21T01:58:21.369Z,0.00
2022-10-21T01:59:16.477Z,0.00
2022-10-21T02:00:11.584Z,0.00
2022-10-21T02:01:06.823Z,0.00
2022-10-21T02:02:01.903Z,0.00
2022-10-21T02:02:57.404Z,0.00
2022-10-21T02:03:52.513Z,0.00
2022-10-21T02:04:47.716Z,0.00
2022-10-21T02:05:42.920Z,0.00
2022-10-21T02:06:38.163Z,0.00
2022-10-21T02:07:33.520Z,0.00
2022-10-21T02:08:28.821Z,0.00
2022-10-21T02:09:23.946Z,0.00
2022-10-21T02:10:19.152Z,0.00
2022-10-21T02:11:14.385Z,0.00
2022-10-21T02:12:09.466Z,0.00
2022-10-21T02:13:04.544Z,0.00
2022-10-21T02:13:59.527Z,0.00
2022-10-21T02:14:54.710Z,0.00
2022-10-21T02:15:49.946Z,0.00
2022-10-21T02:16:45.021Z,0.00
2022-10-21T02:17:40.131Z,0.00
2022-10-21T02:18:35.216Z,0.00
2022-10-21T02:20:25.454Z,0.00
2022-10-21T02:21:20.394Z,0.00
2022-10-21T02:22:15.462Z,0.00
2022-10-21T02:23:10.563Z,0.00
2022-10-21T02:24:05.641Z,0.00
2022-10-21T02:25:00.711Z,0.00
2022-10-21T02:25:55.834Z,0.00
2022-10-21T02:26:50.939Z,0.00
2022-10-21T02:27:46.023Z,0.00
2022-10-21T02:29:36.290Z,0.00
2022-10-21T02:30:31.280Z,0.00
2022-10-21T02:31:30.609Z,0.00
2022-10-21T02:32:25.552Z,0.00
2022-10-21T02:33:20.539Z,0.00
2022-10-21T02:34:15.645Z,0.00
2022-10-21T02:35:10.624Z,0.00
2022-10-21T02:36:05.702Z,0.00
2022-10-21T02:37:00.680Z,0.00
2022-10-21T02:37:55.782Z,0.00
2022-10-21T02:38:51.014Z,0.00
2022-10-21T02:39:46.096Z,0.00
2022-10-21T02:40:41.371Z,0.00
2022-10-21T02:41:36.332Z,0.00
2022-10-21T02:42:31.566Z,0.00
2022-10-21T02:43:26.788Z,0.00
2022-10-21T02:44:21.994Z,0.00
2022-10-21T02:45:17.813Z,0.00
2022-10-21T02:46:13.097Z,0.00
2022-10-21T02:47:09.029Z,0.00
2022-10-21T02:48:04.131Z,0.00
2022-10-21T02:48:59.615Z,0.00
2022-10-21T02:49:55.424Z,0.00
2022-10-21T02:50:50.653Z,0.00
2022-10-21T02:51:46.016Z,0.00
2022-10-21T02:52:42.348Z,0.00
2022-10-21T02:53:37.562Z,0.00
2022-10-21T02:54:33.354Z,0.00
2022-10-21T02:55:28.572Z,0.00
2022-10-21T02:56:24.136Z,0.00
2022-10-21T02:57:19.765Z,0.00
2022-10-21T02:58:15.112Z,0.00
2022-10-21T02:59:10.906Z,0.00
2022-10-21T03:00:06.115Z,0.00
2022-10-21T03:01:01.860Z,0.00
2022-10-21T03:01:57.175Z,0.00
2022-10-21T03:02:52.400Z,0.00
2022-10-21T03:03:47.610Z,0.00
2022-10-21T03:04:43.939Z,0.00
2022-10-21T03:05:39.305Z,0.00
2022-10-21T03:06:35.102Z,0.00
2022-10-21T03:07:30.307Z,0.00
2022-10-21T03:08:25.555Z,0.00
2022-10-21T03:09:21.320Z,0.00
2022-10-21T03:10:16.627Z,0.00
2022-10-21T03:11:12.446Z,0.00
2022-10-21T03:12:07.647Z,0.00
2022-10-21T03:13:03.036Z,0.00
2022-10-21T03:13:58.822Z,0.00
2022-10-21T03:14:54.051Z,0.00
2022-10-21T03:15:49.248Z,0.00
2022-10-21T03:16:45.790Z,0.00
2022-10-21T03:17:41.292Z,0.00
2022-10-21T03:18:36.836Z,0.00
2022-10-21T03:19:32.049Z,0.00
2022-10-21T03:20:27.282Z,0.00
2022-10-21T03:21:23.093Z,0.00
2022-10-21T03:22:18.362Z,0.00
2022-10-21T03:23:14.284Z,0.00
2022-10-21T03:24:15.441Z,0.00
2022-10-21T03:25:05.912Z,0.00
2022-10-21T03:26:00.771Z,0.00
2022-10-21T03:26:55.983Z,0.00
2022-10-21T03:27:51.529Z,0.00
2022-10-21T03:28:46.641Z,0.00
2022-10-21T03:29:43.221Z,0.00
2022-10-21T03:30:38.576Z,0.00
2022-10-21T03:31:33.801Z,0.00
2022-10-21T03:32:29.602Z,0.00
2022-10-21T03:33:25.144Z,0.00
2022-10-21T03:34:20.068Z,0.00
2022-10-21T03:35:16.822Z,0.00
2022-10-21T03:36:12.189Z,0.00
2022-10-21T03:37:07.959Z,0.00
2022-10-21T03:38:03.185Z,0.00
2022-10-21T03:38:58.443Z,0.00
2022-10-21T03:39:54.239Z,0.00
2022-10-21T03:40:49.467Z,0.00
2022-10-21T03:41:45.375Z,0.00
2022-10-21T03:42:40.980Z,0.00
2022-10-21T03:43:35.945Z,0.00
2022-10-21T03:44:31.925Z,0.00
2022-10-21T03:45:26.990Z,0.00
2022-10-21T03:46:22.214Z,0.00
2022-10-21T03:47:17.455Z,0.00
2022-10-21T03:48:12.678Z,0.00
2022-10-21T03:49:14.641Z,0.00
2022-10-21T03:50:06.499Z,0.00
2022-10-21T03:50:58.657Z,0.00
2022-10-21T03:51:54.443Z,0.00
2022-10-21T03:52:49.669Z,0.00
2022-10-21T03:53:45.032Z,0.00
2022-10-21T03:54:40.137Z,0.00
2022-10-21T03:55:35.238Z,0.00
2022-10-21T03:56:30.219Z,0.00
2022-10-21T03:57:25.322Z,0.00
2022-10-21T03:58:20.405Z,0.00
2022-10-21T03:59:15.511Z,0.00
2022-10-21T04:01:05.801Z,0.00
2022-10-21T04:02:00.905Z,0.00
2022-10-21T04:02:55.991Z,0.00
2022-10-21T04:03:51.121Z,0.00
2022-10-21T04:04:46.219Z,0.00
2022-10-21T04:05:41.388Z,0.00
2022-10-21T04:06:36.502Z,0.00
2022-10-21T04:07:31.608Z,0.00
2022-10-21T04:08:26.686Z,0.00
2022-10-21T04:09:21.762Z,0.00
2022-10-21T04:10:16.749Z,0.00
2022-10-21T04:11:11.829Z,0.00
2022-10-21T04:12:06.917Z,0.00
2022-10-21T04:13:02.050Z,0.00
2022-10-21T04:13:57.151Z,0.00
2022-10-21T04:14:52.224Z,0.00
2022-10-21T04:15:47.232Z,0.00
2022-10-21T04:16:42.344Z,0.00
2022-10-21T04:17:37.578Z,0.00
2022-10-21T04:18:32.926Z,0.00
2022-10-21T04:19:28.127Z,0.00
2022-10-21T04:20:23.380Z,0.00
2022-10-21T04:21:18.627Z,0.00
2022-10-21T04:22:13.870Z,0.00
2022-10-21T04:23:09.101Z,0.00
2022-10-21T04:24:04.467Z,0.00
2022-10-21T04:25:03.839Z,0.00
2022-10-21T04:25:55.751Z,0.00
2022-10-21T04:26:51.014Z,0.00
2022-10-21T04:27:46.253Z,0.00
2022-10-21T04:28:41.502Z,0.00
2022-10-21T04:29:36.727Z,0.00
2022-10-21T04:30:32.010Z,0.00
2022-10-21T04:31:31.264Z,0.00
2022-10-21T04:32:22.617Z,0.00
2022-10-21T04:33:17.724Z,0.00
2022-10-21T04:34:12.936Z,0.00
2022-10-21T04:35:08.189Z,0.00
2022-10-21T04:36:03.418Z,0.00
2022-10-21T04:37:01.161Z,0.00
2022-10-21T04:37:55.081Z,0.00
2022-10-21T04:38:49.337Z,0.00
2022-10-21T04:39:44.577Z,0.00
2022-10-21T04:40:39.983Z,0.00
2022-10-21T04:41:35.199Z,0.00
2022-10-21T04:42:30.519Z,0.00
2022-10-21T04:43:25.759Z,0.00
2022-10-21T04:44:21.084Z,0.00
2022-10-21T04:45:16.309Z,0.00
2022-10-21T04:46:12.107Z,0.00
2022-10-21T04:47:06.925Z,0.00
2022-10-21T04:48:02.595Z,0.00
2022-10-21T04:48:57.679Z,0.00
2022-10-21T04:49:52.792Z,0.00
2022-10-21T04:50:48.013Z,0.00
2022-10-21T04:51:43.339Z,0.00
2022-10-21T04:52:38.584Z,0.00
2022-10-21T04:53:33.482Z,0.00
2022-10-21T04:54:28.503Z,0.00
2022-10-21T04:55:23.601Z,0.00
2022-10-21T04:56:18.705Z,0.00
2022-10-21T04:57:13.694Z,0.00
2022-10-21T04:58:08.833Z,0.00
2022-10-21T04:59:06.113Z,0.00
2022-10-21T05:00:01.210Z,0.00
2022-10-21T05:00:56.358Z,0.00
2022-10-21T05:01:51.388Z,0.00
2022-10-21T05:02:46.369Z,0.00
2022-10-21T05:03:41.345Z,0.00
2022-10-21T05:04:36.416Z,0.00
2022-10-21T05:05:31.513Z,0.00
2022-10-21T05:06:26.506Z,0.00
2022-10-21T05:07:21.661Z,0.00
2022-10-21T05:08:16.624Z,0.00
2022-10-21T05:09:11.657Z,0.00
2022-10-21T05:10:06.643Z,0.00
2022-10-21T05:11:01.647Z,0.00
2022-10-21T05:11:56.756Z,0.00
2022-10-21T05:12:51.978Z,0.00
2022-10-21T05:13:49.240Z,0.00
2022-10-21T05:14:44.355Z,0.00
2022-10-21T05:15:39.421Z,0.00
2022-10-21T05:16:34.495Z,0.00
2022-10-21T05:17:29.556Z,0.00
2022-10-21T05:18:24.614Z,1.00
2022-10-21T05:19:19.747Z,1.00
2022-10-21T05:20:14.745Z,1.00
2022-10-21T05:21:09.844Z,0.00
2022-10-21T05:22:05.053Z,1.00
2022-10-21T05:22:59.888Z,1.00
2022-10-21T05:23:54.891Z,2.00
2022-10-21T05:24:50.691Z,1.00
2022-10-21T05:25:45.945Z,2.00
2022-10-21T05:26:41.250Z,2.00
2022-10-21T05:27:37.073Z,2.00
2022-10-21T05:28:32.367Z,3.00
2022-10-21T05:29:28.137Z,4.00
2022-10-21T05:30:23.384Z,4.00
2022-10-21T05:31:19.063Z,5.00
2022-10-21T05:32:14.632Z,7.00
2022-10-21T05:33:09.921Z,8.00
2022-10-21T05:34:05.138Z,8.00
2022-10-21T05:35:01.643Z,9.00
2022-10-21T05:35:57.070Z,11.00
2022-10-21T05:36:52.845Z,13.00
2022-10-21T05:37:48.171Z,18.00
2022-10-21T05:38:43.467Z,21.00
2022-10-21T05:39:39.238Z,26.00
2022-10-21T05:40:34.565Z,32.00
2022-10-21T05:41:30.399Z,36.00
2022-10-21T05:42:25.762Z,39.00
2022-10-21T05:43:21.096Z,40.00
2022-10-21T05:44:16.828Z,41.00
2022-10-21T05:45:12.119Z,40.00
2022-10-21T05:46:07.551Z,40.00
2022-10-21T05:47:03.825Z,38.00
2022-10-21T05:47:59.114Z,41.00
2022-10-21T05:48:54.989Z,44.00
2022-10-21T05:49:50.249Z,49.00
2022-10-21T05:50:45.841Z,54.00
2022-10-21T05:51:41.438Z,63.00
2022-10-21T05:52:37.006Z,74.00
2022-10-21T05:53:32.485Z,79.00
2022-10-21T05:54:27.804Z,82.00
2022-10-21T05:55:23.244Z,84.00
2022-10-21T05:56:18.847Z,88.00
2022-10-21T05:57:14.119Z,90.00
2022-10-21T05:58:09.583Z,95.00
2022-10-21T05:59:07.933Z,96.00
2022-10-21T06:00:01.150Z,104.00
2022-10-21T06:00:56.959Z,110.00
2022-10-21T06:01:52.320Z,100.00
2022-10-21T06:02:47.680Z,95.00
2022-10-21T06:03:43.446Z,104.00
2022-10-21T06:04:39.011Z,120.00
2022-10-21T06:05:34.519Z,156.00
2022-10-21T06:06:29.909Z,170.00
2022-10-21T06:07:25.318Z,188.00
2022-10-21T06:08:21.096Z,195.00
2022-10-21T06:09:16.609Z,213.00
2022-10-21T06:10:11.936Z,269.00
2022-10-21T06:11:07.329Z,328.00
2022-10-21T06:12:04.147Z,391.00
2022-10-21T06:12:58.466Z,482.00
2022-10-21T06:13:53.998Z,547.00
2022-10-21T06:14:49.599Z,615.00
2022-10-21T06:15:48.778Z,662.00
2022-10-21T06:16:41.755Z,746.00
2022-10-21T06:17:36.420Z,762.00
2022-10-21T06:18:31.717Z,825.00
2022-10-21T06:19:27.826Z,908.00
2022-10-21T06:20:23.236Z,1035.00
2022-10-21T06:21:18.738Z,1097.00
2022-10-21T06:22:15.058Z,1228.00
2022-10-21T06:23:10.513Z,1334.00
2022-10-21T06:24:06.383Z,1502.00
2022-10-21T06:25:01.914Z,1645.00
2022-10-21T06:25:57.357Z,1669.00
2022-10-21T06:26:53.211Z,1743.00
2022-10-21T06:27:48.536Z,1759.00
2022-10-21T06:28:44.007Z,1901.00
2022-10-21T06:29:39.504Z,1943.00
2022-10-21T06:30:35.132Z,1920.00
2022-10-21T06:31:30.173Z,1960.00
2022-10-21T06:32:25.267Z,1804.00
2022-10-21T06:33:24.649Z,1729.00
2022-10-21T06:35:10.452Z,1450.00
2022-10-21T06:36:05.504Z,1244.00
2022-10-21T06:37:00.590Z,1080.00
2022-10-21T06:37:55.888Z,982.00
2022-10-21T06:38:51.899Z,912.00
2022-10-21T06:39:47.158Z,900.00
2022-10-21T06:40:42.556Z,870.00
2022-10-21T06:41:38.836Z,1013.00
2022-10-21T06:42:34.278Z,1112.00
2022-10-21T06:43:30.119Z,1278.00
2022-10-21T06:44:25.625Z,1469.00
2022-10-21T06:45:21.096Z,1562.00
2022-10-21T06:46:16.880Z,1634.00
2022-10-21T06:47:12.316Z,1709.00
2022-10-21T06:48:08.209Z,1760.00
2022-10-21T06:49:03.544Z,1755.00
2022-10-21T06:49:59.048Z,1677.00
2022-10-21T06:50:54.911Z,1525.00
2022-10-21T06:51:50.271Z,1500.00
2022-10-21T06:52:45.730Z,1398.00
2022-10-21T06:53:42.019Z,1432.00
2022-10-21T06:54:37.464Z,1304.00
2022-10-21T06:55:33.344Z,1260.00
2022-10-21T06:56:28.832Z,1309.00
2022-10-21T06:57:24.287Z,1286.00
2022-10-21T06:58:20.048Z,1292.00
2022-10-21T06:59:15.525Z,1238.00
2022-10-21T07:00:11.591Z,1146.00
2022-10-21T07:01:16.441Z,1084.00
2022-10-21T07:02:03.312Z,1075.00
2022-10-21T07:02:58.240Z,1084.00
2022-10-21T07:03:53.697Z,1173.00
2022-10-21T07:04:49.174Z,1277.00
2022-10-21T07:05:45.638Z,1405.00
2022-10-21T07:06:40.945Z,1519.00
2022-10-21T07:07:37.053Z,1641.00
2022-10-21T07:08:46.585Z,1777.00
2022-10-21T07:09:29.295Z,1846.00
2022-10-21T07:10:23.678Z,2036.00
2022-10-21T07:11:19.735Z,2129.00
2022-10-21T07:12:15.139Z,2551.00
2022-10-21T07:13:10.610Z,2702.00
2022-10-21T07:14:06.404Z,2911.00
2022-10-21T07:15:01.745Z,3016.00
2022-10-21T07:15:57.653Z,3100.00
2022-10-21T07:16:53.086Z,3122.00
2022-10-21T07:17:48.600Z,3079.00
2022-10-21T07:18:44.370Z,3000.00
2022-10-21T07:19:39.803Z,2926.00
2022-10-21T07:20:35.335Z,2823.00
2022-10-21T07:21:31.422Z,2639.00
2022-10-21T07:22:26.912Z,2511.00
2022-10-21T07:23:22.827Z,2246.00
2022-10-21T07:24:22.378Z,2163.00
2022-10-21T07:25:13.713Z,2116.00
2022-10-21T07:26:09.182Z,2043.00
2022-10-21T07:27:04.917Z,1888.00
2022-10-21T07:28:00.510Z,1850.00
2022-10-21T07:28:55.979Z,1772.00
2022-10-21T07:29:51.759Z,1666.00
2022-10-21T07:30:47.285Z,1654.00
2022-10-21T07:31:43.015Z,1632.00
2022-10-21T07:32:38.367Z,1674.00
2022-10-21T07:33:33.830Z,1707.00
2022-10-21T07:34:29.603Z,1743.00
2022-10-21T07:35:25.063Z,1838.00
2022-10-21T07:36:20.687Z,1861.00
2022-10-21T07:37:16.872Z,1873.00
2022-10-21T07:38:12.319Z,1876.00
2022-10-21T07:39:07.811Z,1857.00
2022-10-21T07:40:03.055Z,1824.00
2022-10-21T07:40:58.090Z,1845.00
2022-10-21T07:41:53.196Z,1735.00
2022-10-21T07:42:48.252Z,1660.00
2022-10-21T07:43:43.283Z,1502.00
2022-10-21T07:44:38.347Z,1334.00
2022-10-21T07:45:33.434Z,1209.00
2022-10-21T07:46:28.386Z,1156.00
2022-10-21T07:47:23.474Z,1094.00
2022-10-21T07:48:18.551Z,1109.00
2022-10-21T07:49:13.615Z,1201.00
2022-10-21T07:50:08.865Z,1225.00
2022-10-21T07:51:03.903Z,1341.00
2022-10-21T07:51:58.982Z,1423.00
2022-10-21T07:53:10.916Z,1668.00
2022-10-21T07:53:53.905Z,1830.00
2022-10-21T07:54:49.002Z,2006.00
2022-10-21T07:55:44.532Z,2252.00
2022-10-21T07:56:39.790Z,2427.00
2022-10-21T07:57:34.803Z,2715.00
2022-10-21T07:58:29.892Z,2895.00
2022-10-21T07:59:25.013Z,2979.00
2022-10-21T08:00:20.193Z,3108.00
2022-10-21T08:01:15.309Z,3151.00
2022-10-21T08:02:10.352Z,3054.00
2022-10-21T08:03:05.448Z,2930.00
2022-10-21T08:04:00.615Z,2802.00
2022-10-21T08:04:55.440Z,2734.00
2022-10-21T08:05:50.559Z,2677.00
2022-10-21T08:06:45.684Z,2713.00
2022-10-21T08:07:41.884Z,2256.00
2022-10-21T08:08:37.488Z,2152.00
2022-10-21T08:09:32.919Z,2088.00
2022-10-21T08:10:31.474Z,1973.00
2022-10-21T08:11:27.148Z,2096.00
2022-10-21T08:12:22.697Z,2269.00
2022-10-21T08:13:18.312Z,2222.00
2022-10-21T08:14:13.738Z,2256.00
2022-10-21T08:15:08.449Z,2152.00
2022-10-21T08:16:03.554Z,2188.00
2022-10-21T08:17:03.819Z,2444.00
2022-10-21T08:17:59.188Z,2680.00
2022-10-21T08:18:54.762Z,2808.00
2022-10-21T08:19:50.163Z,2847.00
2022-10-21T08:20:45.634Z,2689.00
2022-10-21T08:21:41.054Z,2569.00
2022-10-21T08:22:36.590Z,2394.00
2022-10-21T08:23:32.132Z,2432.00
2022-10-21T08:24:27.546Z,2550.00
2022-10-21T08:25:22.940Z,2507.00
2022-10-21T08:26:18.337Z,2502.00
2022-10-21T08:27:13.985Z,2664.00
2022-10-21T08:28:09.503Z,2771.00
2022-10-21T08:29:05.170Z,2942.00
2022-10-21T08:30:03.909Z,3022.00
2022-10-21T08:30:59.294Z,3310.00
2022-10-21T08:31:54.788Z,3356.00
2022-10-21T08:32:50.340Z,3468.00
2022-10-21T08:33:45.969Z,3527.00
2022-10-21T08:34:41.331Z,3288.00
2022-10-21T08:35:37.949Z,3192.00
2022-10-21T08:36:33.459Z,3146.00
2022-10-21T08:37:28.949Z,3282.00
2022-10-21T08:38:24.629Z,3278.00
2022-10-21T08:39:19.890Z,3272.00
2022-10-21T08:40:14.986Z,3289.00
2022-10-21T08:41:09.975Z,3273.00
2022-10-21T08:42:05.072Z,3350.00
2022-10-21T08:43:00.195Z,3668.00
2022-10-21T08:43:55.218Z,4080.00
2022-10-21T08:44:50.226Z,4627.00
2022-10-21T08:45:45.216Z,5007.00
2022-10-21T08:46:40.287Z,5245.00
2022-10-21T08:47:35.550Z,5658.00
2022-10-21T08:48:30.425Z,5947.00
2022-10-21T08:49:28.543Z,6330.00
2022-10-21T08:50:21.637Z,6537.00
2022-10-21T08:51:15.677Z,6626.00
2022-10-21T08:52:10.662Z,6902.00
2022-10-21T08:53:07.972Z,6973.00
2022-10-21T08:54:03.346Z,6647.00
2022-10-21T08:54:58.912Z,6512.00
2022-10-21T08:55:54.312Z,6141.00
2022-10-21T08:56:49.949Z,5911.00
2022-10-21T08:57:45.452Z,5887.00
2022-10-21T08:58:40.935Z,5722.00
2022-10-21T08:59:36.577Z,5621.00
2022-10-21T09:00:32.097Z,5762.00
2022-10-21T09:01:27.623Z,5533.00
2022-10-21T09:02:23.960Z,5537.00
2022-10-21T09:03:19.712Z,5382.00
2022-10-21T09:04:15.029Z,5083.00
2022-10-21T09:05:10.383Z,5415.00
2022-10-21T09:06:05.874Z,6046.00
2022-10-21T09:07:01.323Z,6523.00
2022-10-21T09:07:57.789Z,7263.00
2022-10-21T09:08:56.434Z,7283.00
2022-10-21T09:09:48.953Z,6879.00
2022-10-21T09:10:44.468Z,6613.00
2022-10-21T09:11:39.881Z,6557.00
2022-10-21T09:12:34.861Z,6520.00
2022-10-21T09:13:29.935Z,6632.00
2022-10-21T09:14:25.110Z,6776.00
2022-10-21T09:15:20.295Z,7624.00
2022-10-21T09:16:15.256Z,9056.00
2022-10-21T09:17:10.410Z,9211.00
2022-10-21T09:18:05.426Z,8729.00
2022-10-21T09:19:00.537Z,8103.00
2022-10-21T09:19:55.550Z,7709.00
2022-10-21T09:20:55.928Z,7555.00
2022-10-21T09:21:46.692Z,7830.00
2022-10-21T09:22:40.758Z,8286.00
2022-10-21T09:23:35.726Z,7281.00
2022-10-21T09:24:30.868Z,6452.00
2022-10-21T09:25:28.424Z,5920.00
2022-10-21T09:26:26.579Z,6421.00
2022-10-21T09:27:27.006Z,6954.00
2022-10-21T09:28:16.067Z,7581.00
2022-10-21T09:29:10.620Z,7449.00
2022-10-21T09:30:05.989Z,7570.00
2022-10-21T09:31:01.548Z,7572.00
2022-10-21T09:32:02.037Z,7519.00
2022-10-21T09:32:54.048Z,7220.00
2022-10-21T09:33:48.449Z,6565.00
2022-10-21T09:34:43.981Z,5763.00
2022-10-21T09:35:39.630Z,5422.00
2022-10-21T09:36:35.388Z,5088.00
2022-10-21T09:37:33.227Z,4596.00
2022-10-21T09:38:26.127Z,4164.00
2022-10-21T09:39:21.634Z,3884.00
2022-10-21T09:40:17.250Z,3830.00
2022-10-21T09:41:12.856Z,3668.00
2022-10-21T09:42:13.465Z,3696.00
2022-10-21T09:43:05.305Z,3653.00
2022-10-21T09:43:59.871Z,3521.00
2022-10-21T09:44:55.406Z,3471.00
2022-10-21T09:45:51.016Z,3374.00
2022-10-21T09:46:46.571Z,3125.00
2022-10-21T09:47:42.102Z,3299.00
2022-10-21T09:48:50.240Z,3298.00
2022-10-21T09:50:05.400Z,3349.00
2022-10-21T09:50:29.693Z,3654.00
2022-10-21T09:51:24.007Z,4126.00
2022-10-21T09:52:19.103Z,4531.00
2022-10-21T09:53:14.214Z,4929.00
2022-10-21T09:54:09.353Z,5399.00
2022-10-21T09:55:05.655Z,4946.00
2022-10-21T09:56:00.774Z,4264.00
2022-10-21T09:56:55.918Z,4349.00
2022-10-21T09:57:51.179Z,4192.00
2022-10-21T09:58:46.122Z,4234.00
2022-10-21T09:59:41.261Z,4400.00
2022-10-21T10:00:36.371Z,4223.00
2022-10-21T10:01:31.368Z,3557.00
2022-10-21T10:02:26.459Z,2665.00
2022-10-21T10:03:21.540Z,2437.00
2022-10-21T10:04:16.554Z,2630.00
2022-10-21T10:05:12.610Z,3406.00
2022-10-21T10:06:08.223Z,4626.00
2022-10-21T10:07:03.449Z,6023.00
2022-10-21T10:07:59.048Z,6401.00
2022-10-21T10:08:54.521Z,6204.00
2022-10-21T10:09:49.919Z,5522.00
2022-10-21T10:10:45.431Z,5384.00
2022-10-21T10:11:40.851Z,4842.00
2022-10-21T10:12:36.750Z,4617.00
2022-10-21T10:13:31.921Z,4686.00
2022-10-21T10:14:27.198Z,5124.00
2022-10-21T10:15:22.717Z,5617.00
2022-10-21T10:16:18.233Z,6060.00
2022-10-21T10:17:13.614Z,6655.00
2022-10-21T10:18:12.909Z,6853.00
2022-10-21T10:19:08.415Z,7221.00
2022-10-21T10:20:04.074Z,7929.00
2022-10-21T10:20:59.645Z,8269.00
2022-10-21T10:21:55.264Z,8080.00
2022-10-21T10:22:50.743Z,8922.00
2022-10-21T10:23:46.383Z,10062.00
2022-10-21T10:24:42.880Z,11031.00
2022-10-21T10:25:38.327Z,11555.00
2022-10-21T10:26:33.788Z,11323.00
2022-10-21T10:27:29.367Z,11110.00
2022-10-21T10:28:24.798Z,10673.00
2022-10-21T10:29:20.103Z,10599.00
2022-10-21T10:30:15.734Z,10602.00
2022-10-21T10:31:10.901Z,11258.00
2022-10-21T10:32:06.318Z,11637.00
2022-10-21T10:33:01.838Z,12124.00
2022-10-21T10:33:58.941Z,11623.00
2022-10-21T10:34:52.750Z,10990.00
2022-10-21T10:35:48.133Z,10379.00
2022-10-21T10:36:43.582Z,10040.00
2022-10-21T10:37:39.175Z,10304.00
2022-10-21T10:38:34.500Z,10563.00
2022-10-21T10:39:29.957Z,11128.00
2022-10-21T10:40:29.327Z,12098.00
2022-10-21T10:41:24.999Z,12508.00
2022-10-21T10:42:20.185Z,12953.00
2022-10-21T10:43:15.730Z,12635.00
2022-10-21T10:44:11.060Z,12776.00
2022-10-21T10:45:06.657Z,12435.00
2022-10-21T10:46:02.299Z,11702.00
2022-10-21T10:46:57.607Z,11338.00
2022-10-21T10:47:53.109Z,10159.00
2022-10-21T10:48:48.414Z,9580.00
2022-10-21T10:49:43.817Z,9193.00
2022-10-21T10:50:39.321Z,8968.00
2022-10-21T10:51:34.879Z,9134.00
2022-10-21T10:52:30.454Z,8988.00
2022-10-21T10:53:26.067Z,9124.00
2022-10-21T10:54:21.071Z,8700.00
2022-10-21T10:55:16.164Z,8860.00
2022-10-21T10:56:11.299Z,8833.00
2022-10-21T10:57:06.427Z,9066.00
2022-10-21T10:58:11.469Z,9011.00
2022-10-21T10:58:57.658Z,9200.00
2022-10-21T10:59:51.652Z,8793.00
2022-10-21T11:00:46.710Z,8877.00
2022-10-21T11:01:41.811Z,9065.00
2022-10-21T11:02:36.909Z,8959.00
2022-10-21T11:03:32.080Z,9070.00
2022-10-21T11:04:27.225Z,8653.00
2022-10-21T11:05:22.291Z,8518.00
2022-10-21T11:06:17.355Z,8630.00
2022-10-21T11:07:12.386Z,7953.00
2022-10-21T11:08:07.883Z,8028.00
2022-10-21T11:09:03.397Z,7532.00
2022-10-21T11:09:58.712Z,7695.00
2022-10-21T11:10:54.336Z,7614.00
2022-10-21T11:11:49.721Z,7470.00
2022-10-21T11:12:46.320Z,7449.00
2022-10-21T11:13:42.365Z,7207.00
2022-10-21T11:14:37.468Z,7420.00
2022-10-21T11:15:32.829Z,7213.00
2022-10-21T11:16:31.418Z,6882.00
2022-10-21T11:17:26.776Z,6818.00
2022-10-21T11:18:24.987Z,6756.00
2022-10-21T11:19:17.097Z,6761.00
2022-10-21T11:20:12.287Z,6455.00
2022-10-21T11:21:07.674Z,6718.00
2022-10-21T11:22:06.058Z,6500.00
2022-10-21T11:22:58.783Z,6187.00
2022-10-21T11:23:56.950Z,6574.00
2022-10-21T11:24:49.682Z,6505.00
2022-10-21T11:25:45.139Z,6923.00
2022-10-21T11:26:40.717Z,6958.00
2022-10-21T11:27:36.447Z,7039.00
2022-10-21T11:28:31.852Z,6752.00
2022-10-21T11:29:27.340Z,6575.00
2022-10-21T11:30:22.567Z,6659.00
2022-10-21T11:31:17.579Z,6279.00
2022-10-21T11:32:12.781Z,6144.00
2022-10-21T11:33:07.741Z,6179.00
2022-10-21T11:34:02.936Z,6304.00
2022-10-21T11:34:58.051Z,6351.00
2022-10-21T11:35:57.410Z,6549.00
2022-10-21T11:36:48.181Z,6459.00
2022-10-21T11:37:43.257Z,6683.00
2022-10-21T11:38:38.332Z,6814.00
2022-10-21T11:39:35.416Z,7285.00
2022-10-21T11:40:30.441Z,7364.00
2022-10-21T11:41:27.959Z,7601.00
2022-10-21T11:42:20.541Z,7965.00
2022-10-21T11:43:15.529Z,8183.00
2022-10-21T11:44:10.621Z,8319.00
2022-10-21T11:45:05.989Z,8469.00
2022-10-21T11:46:01.410Z,8593.00